Terminal Aerodrome Forecast
Issued by NWS Cleveland, OH

Home | Current Version | Previous Version | Graphics & Text | Print | Product List | Glossary On
Versions: 1 2 3 4 5 6 7 8 9 10 11 12 13 14 15 16 17 18 19 20 21
358
FTUS41 KCLE 160332 AAA
TAFTOL
TAF AMD
KTOL 160332Z 1604/1624 23012G20KT P6SM OVC035
      TEMPO 1608/1611 5SM -SHSN OVC025
     FM161200 23008KT P6SM BKN050
     FM162000 23004KT P6SM BKN100=

USA.gov is the U.S. government's official web portal to all federal, state and local government web resources and services.